sensor_id;sensor_type;location;lat;lon;timestamp;P1;durP1;ratioP1;P2;durP2;ratioP2
72205;SDS011;60111;48.286;7.812;2023-02-28T00:01:35;11.22;;;5.03;;
72205;SDS011;60111;48.286;7.812;2023-02-28T00:04:08;8.28;;;4.33;;
72205;SDS011;60111;48.286;7.812;2023-02-28T00:06:41;11.22;;;4.30;;
72205;SDS011;60111;48.286;7.812;2023-02-28T00:09:13;17.80;;;5.67;;
72205;SDS011;60111;48.286;7.812;2023-02-28T00:11:46;12.65;;;5.03;;
72205;SDS011;60111;48.286;7.812;2023-02-28T00:14:18;7.10;;;4.33;;
72205;SDS011;60111;48.286;7.812;2023-02-28T00:16:51;5.20;;;3.52;;
72205;SDS011;60111;48.286;7.812;2023-02-28T00:19:23;6.17;;;3.45;;
72205;SDS011;60111;48.286;7.812;2023-02-28T00:21:56;9.93;;;4.47;;
72205;SDS011;60111;48.286;7.812;2023-02-28T00:24:28;6.03;;;3.58;;
72205;SDS011;60111;48.286;7.812;2023-02-28T00:27:01;9.08;;;4.10;;
72205;SDS011;60111;48.286;7.812;2023-02-28T00:29:33;8.53;;;3.77;;
72205;SDS011;60111;48.286;7.812;2023-02-28T00:32:06;9.45;;;4.47;;
72205;SDS011;60111;48.286;7.812;2023-02-28T00:34:39;10.20;;;4.20;;
72205;SDS011;60111;48.286;7.812;2023-02-28T00:37:12;5.97;;;3.47;;
72205;SDS011;60111;48.286;7.812;2023-02-28T00:39:45;4.60;;;3.27;;
72205;SDS011;60111;48.286;7.812;2023-02-28T00:42:17;5.60;;;3.47;;
72205;SDS011;60111;48.286;7.812;2023-02-28T00:44:50;6.47;;;3.20;;
72205;SDS011;60111;48.286;7.812;2023-02-28T00:47:22;5.58;;;3.37;;
72205;SDS011;60111;48.286;7.812;2023-02-28T00:49:55;7.83;;;4.22;;
72205;SDS011;60111;48.286;7.812;2023-02-28T00:52:27;6.70;;;3.62;;
72205;SDS011;60111;48.286;7.812;2023-02-28T00:55:00;6.00;;;3.77;;
72205;SDS011;60111;48.286;7.812;2023-02-28T00:57:33;9.65;;;3.65;;
72205;SDS011;60111;48.286;7.812;2023-02-28T01:00:05;5.20;;;3.12;;
72205;SDS011;60111;48.286;7.812;2023-02-28T01:02:39;6.12;;;3.70;;
72205;SDS011;60111;48.286;7.812;2023-02-28T01:05:12;6.15;;;3.40;;
72205;SDS011;60111;48.286;7.812;2023-02-28T01:07:45;5.87;;;3.90;;
72205;SDS011;60111;48.286;7.812;2023-02-28T01:10:17;4.72;;;3.00;;
72205;SDS011;60111;48.286;7.812;2023-02-28T01:12:51;6.53;;;3.70;;
72205;SDS011;60111;48.286;7.812;2023-02-28T01:15:24;7.58;;;3.90;;
72205;SDS011;60111;48.286;7.812;2023-02-28T01:17:56;5.53;;;3.72;;
72205;SDS011;60111;48.286;7.812;2023-02-28T01:20:29;5.17;;;3.50;;
72205;SDS011;60111;48.286;7.812;2023-02-28T01:23:02;5.12;;;3.60;;
72205;SDS011;60111;48.286;7.812;2023-02-28T01:25:35;4.37;;;3.55;;
72205;SDS011;60111;48.286;7.812;2023-02-28T01:28:08;5.90;;;4.33;;
72205;SDS011;60111;48.286;7.812;2023-02-28T01:30:40;6.62;;;4.37;;
72205;SDS011;60111;48.286;7.812;2023-02-28T01:33:13;5.22;;;3.60;;
72205;SDS011;60111;48.286;7.812;2023-02-28T01:35:45;4.30;;;3.50;;
72205;SDS011;60111;48.286;7.812;2023-02-28T01:38:18;5.60;;;3.55;;
72205;SDS011;60111;48.286;7.812;2023-02-28T01:40:51;5.00;;;3.50;;
72205;SDS011;60111;48.286;7.812;2023-02-28T01:43:24;5.72;;;3.77;;
72205;SDS011;60111;48.286;7.812;2023-02-28T01:45:59;4.15;;;3.20;;
72205;SDS011;60111;48.286;7.812;2023-02-28T01:48:32;4.65;;;2.83;;
72205;SDS011;60111;48.286;7.812;2023-02-28T01:51:08;5.85;;;3.22;;
72205;SDS011;60111;48.286;7.812;2023-02-28T01:53:47;4.10;;;3.40;;
72205;SDS011;60111;48.286;7.812;2023-02-28T01:56:23;7.00;;;3.50;;
72205;SDS011;60111;48.286;7.812;2023-02-28T01:58:57;4.75;;;3.35;;
72205;SDS011;60111;48.286;7.812;2023-02-28T02:01:30;6.55;;;3.58;;
72205;SDS011;60111;48.286;7.812;2023-02-28T02:04:03;5.07;;;3.27;;
72205;SDS011;60111;48.286;7.812;2023-02-28T02:06:43;5.80;;;3.60;;
72205;SDS011;60111;48.286;7.812;2023-02-28T02:09:17;6.92;;;4.08;;
72205;SDS011;60111;48.286;7.812;2023-02-28T02:11:50;5.90;;;3.70;;
72205;SDS011;60111;48.286;7.812;2023-02-28T02:17:32;6.85;;;3.77;;
72205;SDS011;60111;48.286;7.812;2023-02-28T02:25:42;5.70;;;2.98;;
72205;SDS011;60111;48.286;7.812;2023-02-28T02:31:24;4.08;;;3.00;;
72205;SDS011;60111;48.286;7.812;2023-02-28T02:34:09;5.17;;;3.10;;
72205;SDS011;60111;48.286;7.812;2023-02-28T02:45:40;3.67;;;3.00;;
72205;SDS011;60111;48.286;7.812;2023-02-28T02:48:15;4.33;;;3.30;;
72205;SDS011;60111;48.286;7.812;2023-02-28T02:50:51;5.37;;;3.43;;
72205;SDS011;60111;48.286;7.812;2023-02-28T02:53:29;7.65;;;3.75;;
72205;SDS011;60111;48.286;7.812;2023-02-28T02:56:03;5.53;;;3.75;;
72205;SDS011;60111;48.286;7.812;2023-02-28T02:58:38;8.50;;;4.12;;
72205;SDS011;60111;48.286;7.812;2023-02-28T03:01:15;6.42;;;3.50;;
72205;SDS011;60111;48.286;7.812;2023-02-28T03:03:50;8.78;;;3.58;;
72205;SDS011;60111;48.286;7.812;2023-02-28T03:06:24;4.17;;;3.50;;
72205;SDS011;60111;48.286;7.812;2023-02-28T03:11:31;6.90;;;3.77;;
72205;SDS011;60111;48.286;7.812;2023-02-28T03:26:05;5.12;;;3.70;;
72205;SDS011;60111;48.286;7.812;2023-02-28T03:31:19;5.80;;;4.03;;
72205;SDS011;60111;48.286;7.812;2023-02-28T03:33:58;5.00;;;3.95;;
72205;SDS011;60111;48.286;7.812;2023-02-28T03:36:51;5.10;;;3.98;;
72205;SDS011;60111;48.286;7.812;2023-02-28T03:39:37;5.62;;;3.83;;
72205;SDS011;60111;48.286;7.812;2023-02-28T03:42:15;5.45;;;4.00;;
72205;SDS011;60111;48.286;7.812;2023-02-28T03:45:04;8.18;;;4.33;;
72205;SDS011;60111;48.286;7.812;2023-02-28T03:47:54;6.50;;;3.95;;
72205;SDS011;60111;48.286;7.812;2023-02-28T03:50:32;5.85;;;4.08;;
72205;SDS011;60111;48.286;7.812;2023-02-28T03:53:01;8.90;;;3.98;;
72205;SDS011;60111;48.286;7.812;2023-02-28T03:55:43;6.22;;;4.40;;
72205;SDS011;60111;48.286;7.812;2023-02-28T03:58:22;6.95;;;4.20;;
72205;SDS011;60111;48.286;7.812;2023-02-28T04:01:01;4.75;;;4.08;;
72205;SDS011;60111;48.286;7.812;2023-02-28T04:03:38;7.30;;;4.62;;
72205;SDS011;60111;48.286;7.812;2023-02-28T04:06:15;6.47;;;4.22;;
72205;SDS011;60111;48.286;7.812;2023-02-28T04:08:53;6.10;;;4.20;;
72205;SDS011;60111;48.286;7.812;2023-02-28T04:11:28;5.30;;;4.20;;
72205;SDS011;60111;48.286;7.812;2023-02-28T04:14:01;6.70;;;4.37;;
72205;SDS011;60111;48.286;7.812;2023-02-28T04:16:36;6.50;;;4.92;;
72205;SDS011;60111;48.286;7.812;2023-02-28T04:19:10;7.28;;;4.85;;
72205;SDS011;60111;48.286;7.812;2023-02-28T04:21:45;7.58;;;4.97;;
72205;SDS011;60111;48.286;7.812;2023-02-28T04:24:21;7.28;;;4.80;;
72205;SDS011;60111;48.286;7.812;2023-02-28T04:26:56;10.32;;;4.53;;
72205;SDS011;60111;48.286;7.812;2023-02-28T04:29:30;6.00;;;4.75;;
72205;SDS011;60111;48.286;7.812;2023-02-28T04:32:03;7.13;;;4.37;;
72205;SDS011;60111;48.286;7.812;2023-02-28T04:34:36;7.33;;;4.97;;
72205;SDS011;60111;48.286;7.812;2023-02-28T04:37:09;7.70;;;4.90;;
72205;SDS011;60111;48.286;7.812;2023-02-28T04:39:41;8.40;;;4.62;;
72205;SDS011;60111;48.286;7.812;2023-02-28T04:42:14;8.38;;;4.97;;
72205;SDS011;60111;48.286;7.812;2023-02-28T04:44:47;7.00;;;4.37;;
72205;SDS011;60111;48.286;7.812;2023-02-28T04:47:19;6.00;;;4.90;;
72205;SDS011;60111;48.286;7.812;2023-02-28T04:49:52;5.35;;;4.70;;
72205;SDS011;60111;48.286;7.812;2023-02-28T04:52:24;8.13;;;5.85;;
72205;SDS011;60111;48.286;7.812;2023-02-28T04:54:59;8.08;;;4.83;;
72205;SDS011;60111;48.286;7.812;2023-02-28T04:57:32;7.72;;;5.10;;
72205;SDS011;60111;48.286;7.812;2023-02-28T05:00:05;5.42;;;4.62;;
72205;SDS011;60111;48.286;7.812;2023-02-28T05:02:40;5.62;;;4.80;;
72205;SDS011;60111;48.286;7.812;2023-02-28T05:05:13;6.37;;;4.85;;
72205;SDS011;60111;48.286;7.812;2023-02-28T05:07:47;6.33;;;5.03;;
72205;SDS011;60111;48.286;7.812;2023-02-28T05:10:20;8.75;;;5.15;;
72205;SDS011;60111;48.286;7.812;2023-02-28T05:12:53;6.25;;;4.75;;
72205;SDS011;60111;48.286;7.812;2023-02-28T05:15:25;6.42;;;4.95;;
72205;SDS011;60111;48.286;7.812;2023-02-28T05:17:58;6.72;;;5.00;;
72205;SDS011;60111;48.286;7.812;2023-02-28T05:20:30;8.20;;;5.55;;
72205;SDS011;60111;48.286;7.812;2023-02-28T05:23:03;6.40;;;4.83;;
72205;SDS011;60111;48.286;7.812;2023-02-28T05:25:35;10.30;;;5.40;;
72205;SDS011;60111;48.286;7.812;2023-02-28T05:28:08;7.45;;;5.30;;
72205;SDS011;60111;48.286;7.812;2023-02-28T05:30:41;7.15;;;5.03;;
72205;SDS011;60111;48.286;7.812;2023-02-28T05:33:14;11.00;;;8.50;;
72205;SDS011;60111;48.286;7.812;2023-02-28T05:35:46;7.20;;;5.15;;
72205;SDS011;60111;48.286;7.812;2023-02-28T05:38:19;7.53;;;5.35;;
72205;SDS011;60111;48.286;7.812;2023-02-28T05:40:51;7.22;;;5.20;;
72205;SDS011;60111;48.286;7.812;2023-02-28T05:43:24;7.83;;;5.15;;
72205;SDS011;60111;48.286;7.812;2023-02-28T05:45:57;18.30;;;5.50;;
72205;SDS011;60111;48.286;7.812;2023-02-28T05:48:29;6.10;;;5.33;;
72205;SDS011;60111;48.286;7.812;2023-02-28T05:51:02;7.47;;;5.53;;
72205;SDS011;60111;48.286;7.812;2023-02-28T05:53:35;9.43;;;5.97;;
72205;SDS011;60111;48.286;7.812;2023-02-28T05:56:08;8.43;;;5.90;;
72205;SDS011;60111;48.286;7.812;2023-02-28T05:58:41;9.70;;;6.22;;
72205;SDS011;60111;48.286;7.812;2023-02-28T06:04:10;7.62;;;5.67;;
72205;SDS011;60111;48.286;7.812;2023-02-28T06:06:45;7.95;;;5.97;;
72205;SDS011;60111;48.286;7.812;2023-02-28T06:09:18;8.00;;;5.50;;
72205;SDS011;60111;48.286;7.812;2023-02-28T06:11:51;7.80;;;5.92;;
72205;SDS011;60111;48.286;7.812;2023-02-28T06:14:24;8.45;;;5.97;;
72205;SDS011;60111;48.286;7.812;2023-02-28T06:16:58;11.00;;;6.45;;
72205;SDS011;60111;48.286;7.812;2023-02-28T06:19:31;7.60;;;5.43;;
72205;SDS011;60111;48.286;7.812;2023-02-28T06:22:04;10.00;;;5.90;;
72205;SDS011;60111;48.286;7.812;2023-02-28T06:24:37;9.08;;;6.08;;
72205;SDS011;60111;48.286;7.812;2023-02-28T06:27:09;8.65;;;5.92;;
72205;SDS011;60111;48.286;7.812;2023-02-28T06:29:42;6.08;;;5.22;;
72205;SDS011;60111;48.286;7.812;2023-02-28T06:32:14;7.83;;;5.90;;
72205;SDS011;60111;48.286;7.812;2023-02-28T06:34:47;8.13;;;6.15;;
72205;SDS011;60111;48.286;7.812;2023-02-28T06:37:21;7.63;;;5.90;;
72205;SDS011;60111;48.286;7.812;2023-02-28T06:39:55;8.75;;;6.17;;
72205;SDS011;60111;48.286;7.812;2023-02-28T06:42:28;8.70;;;6.42;;
72205;SDS011;60111;48.286;7.812;2023-02-28T06:45:01;9.30;;;6.20;;
72205;SDS011;60111;48.286;7.812;2023-02-28T06:47:39;8.03;;;6.03;;
72205;SDS011;60111;48.286;7.812;2023-02-28T06:50:12;8.78;;;6.62;;
72205;SDS011;60111;48.286;7.812;2023-02-28T06:52:45;10.70;;;6.78;;
72205;SDS011;60111;48.286;7.812;2023-02-28T06:55:18;13.22;;;7.55;;
72205;SDS011;60111;48.286;7.812;2023-02-28T06:57:51;9.98;;;7.15;;
72205;SDS011;60111;48.286;7.812;2023-02-28T07:02:57;8.90;;;6.55;;
72205;SDS011;60111;48.286;7.812;2023-02-28T07:05:29;10.90;;;6.92;;
72205;SDS011;60111;48.286;7.812;2023-02-28T07:08:02;9.35;;;6.90;;
72205;SDS011;60111;48.286;7.812;2023-02-28T07:13:09;14.05;;;7.62;;
72205;SDS011;60111;48.286;7.812;2023-02-28T07:15:42;10.40;;;7.13;;
72205;SDS011;60111;48.286;7.812;2023-02-28T07:18:14;10.72;;;7.12;;
72205;SDS011;60111;48.286;7.812;2023-02-28T07:20:47;10.00;;;7.20;;
72205;SDS011;60111;48.286;7.812;2023-02-28T07:23:20;11.25;;;7.20;;
72205;SDS011;60111;48.286;7.812;2023-02-28T07:25:53;8.73;;;6.67;;
72205;SDS011;60111;48.286;7.812;2023-02-28T07:28:25;10.55;;;7.83;;
72205;SDS011;60111;48.286;7.812;2023-02-28T07:31:02;8.45;;;6.85;;
72205;SDS011;60111;48.286;7.812;2023-02-28T07:33:36;11.25;;;7.50;;
72205;SDS011;60111;48.286;7.812;2023-02-28T07:36:10;11.97;;;7.00;;
72205;SDS011;60111;48.286;7.812;2023-02-28T07:38:48;9.65;;;6.90;;
72205;SDS011;60111;48.286;7.812;2023-02-28T07:41:21;9.65;;;7.00;;
72205;SDS011;60111;48.286;7.812;2023-02-28T07:43:55;11.12;;;7.83;;
72205;SDS011;60111;48.286;7.812;2023-02-28T07:49:03;11.40;;;6.92;;
72205;SDS011;60111;48.286;7.812;2023-02-28T07:51:36;19.10;;;7.47;;
72205;SDS011;60111;48.286;7.812;2023-02-28T07:54:09;10.68;;;7.58;;
72205;SDS011;60111;48.286;7.812;2023-02-28T07:56:41;11.60;;;7.67;;
72205;SDS011;60111;48.286;7.812;2023-02-28T07:59:14;11.20;;;8.28;;
72205;SDS011;60111;48.286;7.812;2023-02-28T08:01:47;12.15;;;8.15;;
72205;SDS011;60111;48.286;7.812;2023-02-28T08:04:21;14.10;;;7.47;;
72205;SDS011;60111;48.286;7.812;2023-02-28T08:06:53;10.48;;;8.15;;
72205;SDS011;60111;48.286;7.812;2023-02-28T08:09:27;9.85;;;6.95;;
72205;SDS011;60111;48.286;7.812;2023-02-28T08:12:00;10.37;;;7.40;;
72205;SDS011;60111;48.286;7.812;2023-02-28T08:14:33;12.13;;;7.35;;
72205;SDS011;60111;48.286;7.812;2023-02-28T08:17:06;13.45;;;7.67;;
72205;SDS011;60111;48.286;7.812;2023-02-28T08:19:38;8.58;;;7.22;;
72205;SDS011;60111;48.286;7.812;2023-02-28T08:22:11;14.15;;;7.33;;
72205;SDS011;60111;48.286;7.812;2023-02-28T08:24:44;9.98;;;7.28;;
72205;SDS011;60111;48.286;7.812;2023-02-28T08:27:17;10.65;;;7.83;;
72205;SDS011;60111;48.286;7.812;2023-02-28T08:29:49;8.63;;;7.40;;
72205;SDS011;60111;48.286;7.812;2023-02-28T08:32:22;12.15;;;8.63;;
72205;SDS011;60111;48.286;7.812;2023-02-28T08:34:55;15.45;;;8.33;;
72205;SDS011;60111;48.286;7.812;2023-02-28T08:37:27;14.95;;;9.60;;
72205;SDS011;60111;48.286;7.812;2023-02-28T08:40:00;11.70;;;8.13;;
72205;SDS011;60111;48.286;7.812;2023-02-28T08:42:35;10.98;;;7.45;;
72205;SDS011;60111;48.286;7.812;2023-02-28T08:45:08;10.80;;;7.53;;
72205;SDS011;60111;48.286;7.812;2023-02-28T08:47:40;14.73;;;7.80;;
72205;SDS011;60111;48.286;7.812;2023-02-28T08:50:13;11.28;;;8.13;;
72205;SDS011;60111;48.286;7.812;2023-02-28T08:52:46;10.25;;;7.60;;
72205;SDS011;60111;48.286;7.812;2023-02-28T08:55:18;12.37;;;8.20;;
72205;SDS011;60111;48.286;7.812;2023-02-28T08:57:51;10.05;;;7.72;;
72205;SDS011;60111;48.286;7.812;2023-02-28T09:00:24;11.63;;;7.37;;
72205;SDS011;60111;48.286;7.812;2023-02-28T09:02:56;11.83;;;8.45;;
72205;SDS011;60111;48.286;7.812;2023-02-28T09:05:29;12.03;;;8.20;;
72205;SDS011;60111;48.286;7.812;2023-02-28T09:08:02;13.10;;;8.65;;
72205;SDS011;60111;48.286;7.812;2023-02-28T09:10:34;12.88;;;8.70;;
72205;SDS011;60111;48.286;7.812;2023-02-28T09:13:07;14.58;;;9.18;;
72205;SDS011;60111;48.286;7.812;2023-02-28T09:15:39;13.72;;;8.50;;
72205;SDS011;60111;48.286;7.812;2023-02-28T09:18:12;11.83;;;8.18;;
72205;SDS011;60111;48.286;7.812;2023-02-28T09:20:45;11.95;;;8.35;;
72205;SDS011;60111;48.286;7.812;2023-02-28T09:23:18;12.43;;;8.53;;
72205;SDS011;60111;48.286;7.812;2023-02-28T09:25:52;13.03;;;8.95;;
72205;SDS011;60111;48.286;7.812;2023-02-28T09:28:26;14.03;;;8.85;;
72205;SDS011;60111;48.286;7.812;2023-02-28T09:30:59;14.33;;;9.50;;
72205;SDS011;60111;48.286;7.812;2023-02-28T09:33:31;12.68;;;9.10;;
72205;SDS011;60111;48.286;7.812;2023-02-28T09:36:05;13.23;;;9.07;;
72205;SDS011;60111;48.286;7.812;2023-02-28T09:38:38;15.83;;;9.23;;
72205;SDS011;60111;48.286;7.812;2023-02-28T09:41:12;12.82;;;9.15;;
72205;SDS011;60111;48.286;7.812;2023-02-28T09:43:47;15.23;;;9.48;;
72205;SDS011;60111;48.286;7.812;2023-02-28T09:46:32;17.85;;;10.65;;
72205;SDS011;60111;48.286;7.812;2023-02-28T09:49:12;15.17;;;8.93;;
72205;SDS011;60111;48.286;7.812;2023-02-28T09:51:51;15.80;;;9.40;;
72205;SDS011;60111;48.286;7.812;2023-02-28T09:54:27;12.50;;;8.83;;
72205;SDS011;60111;48.286;7.812;2023-02-28T10:00:03;14.28;;;8.50;;
72205;SDS011;60111;48.286;7.812;2023-02-28T10:02:54;12.37;;;8.80;;
72205;SDS011;60111;48.286;7.812;2023-02-28T10:05:31;14.70;;;9.70;;
72205;SDS011;60111;48.286;7.812;2023-02-28T10:08:10;14.13;;;8.63;;
72205;SDS011;60111;48.286;7.812;2023-02-28T10:10:47;13.07;;;9.10;;
72205;SDS011;60111;48.286;7.812;2023-02-28T10:13:38;15.23;;;9.40;;
72205;SDS011;60111;48.286;7.812;2023-02-28T10:16:16;13.62;;;9.20;;
72205;SDS011;60111;48.286;7.812;2023-02-28T10:18:58;15.88;;;9.70;;
72205;SDS011;60111;48.286;7.812;2023-02-28T10:24:29;14.03;;;9.10;;
72205;SDS011;60111;48.286;7.812;2023-02-28T10:27:21;13.07;;;9.23;;
72205;SDS011;60111;48.286;7.812;2023-02-28T10:29:57;14.55;;;9.18;;
72205;SDS011;60111;48.286;7.812;2023-02-28T10:32:27;11.75;;;8.90;;
72205;SDS011;60111;48.286;7.812;2023-02-28T10:37:53;15.60;;;9.65;;
72205;SDS011;60111;48.286;7.812;2023-02-28T10:40:28;15.05;;;9.93;;
72205;SDS011;60111;48.286;7.812;2023-02-28T10:43:05;14.13;;;9.68;;
72205;SDS011;60111;48.286;7.812;2023-02-28T10:51:19;14.00;;;9.33;;
72205;SDS011;60111;48.286;7.812;2023-02-28T10:53:54;12.13;;;8.75;;
72205;SDS011;60111;48.286;7.812;2023-02-28T10:56:27;12.98;;;9.45;;
72205;SDS011;60111;48.286;7.812;2023-02-28T10:59:02;11.37;;;8.53;;
72205;SDS011;60111;48.286;7.812;2023-02-28T11:01:38;13.38;;;9.25;;
72205;SDS011;60111;48.286;7.812;2023-02-28T11:07:21;14.70;;;9.93;;
72205;SDS011;60111;48.286;7.812;2023-02-28T11:09:55;14.05;;;9.63;;
72205;SDS011;60111;48.286;7.812;2023-02-28T11:12:31;13.78;;;9.20;;
72205;SDS011;60111;48.286;7.812;2023-02-28T11:16:09;15.00;;;10.23;;
72205;SDS011;60111;48.286;7.812;2023-02-28T11:18:36;15.75;;;9.00;;
72205;SDS011;60111;48.286;7.812;2023-02-28T11:20:49;17.35;;;9.63;;
72205;SDS011;60111;48.286;7.812;2023-02-28T11:23:25;15.50;;;10.23;;
72205;SDS011;60111;48.286;7.812;2023-02-28T11:26:00;19.10;;;11.28;;
72205;SDS011;60111;48.286;7.812;2023-02-28T11:28:36;13.88;;;10.15;;
72205;SDS011;60111;48.286;7.812;2023-02-28T11:36:27;13.98;;;9.60;;
72205;SDS011;60111;48.286;7.812;2023-02-28T11:39:07;16.02;;;10.98;;
72205;SDS011;60111;48.286;7.812;2023-02-28T11:44:30;17.32;;;11.20;;
72205;SDS011;60111;48.286;7.812;2023-02-28T11:49:59;14.75;;;9.95;;
72205;SDS011;60111;48.286;7.812;2023-02-28T11:52:39;15.68;;;10.30;;
72205;SDS011;60111;48.286;7.812;2023-02-28T12:06:38;13.13;;;9.03;;
72205;SDS011;60111;48.286;7.812;2023-02-28T12:20:12;13.08;;;9.35;;
72205;SDS011;60111;48.286;7.812;2023-02-28T12:22:54;14.15;;;10.13;;
72205;SDS011;60111;48.286;7.812;2023-02-28T12:28:47;13.38;;;9.60;;
72205;SDS011;60111;48.286;7.812;2023-02-28T12:31:24;16.50;;;10.40;;
72205;SDS011;60111;48.286;7.812;2023-02-28T12:34:10;13.98;;;9.80;;
72205;SDS011;60111;48.286;7.812;2023-02-28T12:36:43;13.62;;;9.35;;
72205;SDS011;60111;48.286;7.812;2023-02-28T12:39:19;13.13;;;9.33;;
72205;SDS011;60111;48.286;7.812;2023-02-28T12:42:01;13.53;;;9.65;;
72205;SDS011;60111;48.286;7.812;2023-02-28T12:44:49;13.98;;;9.85;;
72205;SDS011;60111;48.286;7.812;2023-02-28T12:47:22;16.35;;;10.48;;
72205;SDS011;60111;48.286;7.812;2023-02-28T12:50:06;15.45;;;10.23;;
72205;SDS011;60111;48.286;7.812;2023-02-28T12:52:43;16.52;;;10.53;;
72205;SDS011;60111;48.286;7.812;2023-02-28T13:04:19;15.10;;;10.50;;
72205;SDS011;60111;48.286;7.812;2023-02-28T13:07:18;14.70;;;10.25;;
72205;SDS011;60111;48.286;7.812;2023-02-28T13:10:04;14.33;;;9.20;;
72205;SDS011;60111;48.286;7.812;2023-02-28T13:12:38;13.58;;;9.50;;
72205;SDS011;60111;48.286;7.812;2023-02-28T13:15:28;17.57;;;9.48;;
72205;SDS011;60111;48.286;7.812;2023-02-28T13:18:00;12.60;;;8.90;;
72205;SDS011;60111;48.286;7.812;2023-02-28T13:20:34;14.15;;;9.33;;
72205;SDS011;60111;48.286;7.812;2023-02-28T13:23:35;12.73;;;9.25;;
72205;SDS011;60111;48.286;7.812;2023-02-28T13:31:21;14.75;;;9.55;;
72205;SDS011;60111;48.286;7.812;2023-02-28T13:36:33;12.63;;;9.58;;
72205;SDS011;60111;48.286;7.812;2023-02-28T13:42:24;16.12;;;9.80;;
72205;SDS011;60111;48.286;7.812;2023-02-28T13:48:00;15.98;;;11.25;;
72205;SDS011;60111;48.286;7.812;2023-02-28T13:50:35;14.23;;;10.97;;
72205;SDS011;60111;48.286;7.812;2023-02-28T14:01:38;13.15;;;10.03;;
72205;SDS011;60111;48.286;7.812;2023-02-28T14:07:19;12.55;;;9.70;;
72205;SDS011;60111;48.286;7.812;2023-02-28T14:09:55;12.70;;;9.63;;
72205;SDS011;60111;48.286;7.812;2023-02-28T14:15:47;13.30;;;9.60;;
72205;SDS011;60111;48.286;7.812;2023-02-28T14:18:27;12.70;;;9.73;;
72205;SDS011;60111;48.286;7.812;2023-02-28T14:37:57;14.53;;;10.00;;
72205;SDS011;60111;48.286;7.812;2023-02-28T14:40:31;26.90;;;18.90;;
72205;SDS011;60111;48.286;7.812;2023-02-28T14:43:06;12.70;;;9.45;;
72205;SDS011;60111;48.286;7.812;2023-02-28T14:45:41;12.88;;;9.88;;
72205;SDS011;60111;48.286;7.812;2023-02-28T14:48:15;14.80;;;9.45;;
72205;SDS011;60111;48.286;7.812;2023-02-28T14:50:51;11.73;;;9.33;;
72205;SDS011;60111;48.286;7.812;2023-02-28T14:53:26;13.32;;;9.50;;
72205;SDS011;60111;48.286;7.812;2023-02-28T14:56:00;13.08;;;8.98;;
72205;SDS011;60111;48.286;7.812;2023-02-28T14:58:34;12.58;;;9.68;;
72205;SDS011;60111;48.286;7.812;2023-02-28T15:01:10;11.35;;;9.13;;
72205;SDS011;60111;48.286;7.812;2023-02-28T15:03:41;16.85;;;10.30;;
72205;SDS011;60111;48.286;7.812;2023-02-28T15:06:17;11.93;;;8.98;;
72205;SDS011;60111;48.286;7.812;2023-02-28T15:11:48;12.55;;;9.40;;
72205;SDS011;60111;48.286;7.812;2023-02-28T15:14:21;12.18;;;9.20;;
72205;SDS011;60111;48.286;7.812;2023-02-28T15:16:56;12.03;;;9.55;;
72205;SDS011;60111;48.286;7.812;2023-02-28T15:19:32;13.30;;;9.78;;
72205;SDS011;60111;48.286;7.812;2023-02-28T15:22:17;14.13;;;9.87;;
72205;SDS011;60111;48.286;7.812;2023-02-28T15:24:48;14.25;;;10.85;;
72205;SDS011;60111;48.286;7.812;2023-02-28T15:30:00;13.10;;;9.35;;
72205;SDS011;60111;48.286;7.812;2023-02-28T15:32:38;14.68;;;9.85;;
72205;SDS011;60111;48.286;7.812;2023-02-28T15:35:18;12.40;;;9.03;;
72205;SDS011;60111;48.286;7.812;2023-02-28T15:40:57;14.87;;;10.50;;
72205;SDS011;60111;48.286;7.812;2023-02-28T15:43:36;16.35;;;11.00;;
72205;SDS011;60111;48.286;7.812;2023-02-28T15:46:09;18.37;;;12.25;;
72205;SDS011;60111;48.286;7.812;2023-02-28T15:48:53;16.35;;;11.50;;
72205;SDS011;60111;48.286;7.812;2023-02-28T15:51:34;16.25;;;10.23;;
72205;SDS011;60111;48.286;7.812;2023-02-28T15:54:12;14.07;;;9.90;;
72205;SDS011;60111;48.286;7.812;2023-02-28T15:56:51;13.20;;;9.80;;
72205;SDS011;60111;48.286;7.812;2023-02-28T15:59:30;13.30;;;9.80;;
72205;SDS011;60111;48.286;7.812;2023-02-28T16:02:14;19.92;;;12.95;;
72205;SDS011;60111;48.286;7.812;2023-02-28T16:04:55;17.07;;;10.63;;
72205;SDS011;60111;48.286;7.812;2023-02-28T16:07:32;15.13;;;10.35;;
72205;SDS011;60111;48.286;7.812;2023-02-28T16:10:10;15.85;;;11.33;;
72205;SDS011;60111;48.286;7.812;2023-02-28T16:12:45;15.03;;;10.32;;
72205;SDS011;60111;48.286;7.812;2023-02-28T16:15:19;14.87;;;10.40;;
72205;SDS011;60111;48.286;7.812;2023-02-28T16:17:53;17.32;;;11.60;;
72205;SDS011;60111;48.286;7.812;2023-02-28T16:20:27;15.93;;;11.27;;
72205;SDS011;60111;48.286;7.812;2023-02-28T16:23:01;16.77;;;11.45;;
72205;SDS011;60111;48.286;7.812;2023-02-28T16:25:38;18.90;;;11.18;;
72205;SDS011;60111;48.286;7.812;2023-02-28T16:28:15;32.28;;;17.52;;
72205;SDS011;60111;48.286;7.812;2023-02-28T16:30:51;22.25;;;13.18;;
72205;SDS011;60111;48.286;7.812;2023-02-28T16:33:24;29.42;;;18.17;;
72205;SDS011;60111;48.286;7.812;2023-02-28T16:35:56;37.20;;;20.17;;
72205;SDS011;60111;48.286;7.812;2023-02-28T16:38:29;26.97;;;16.17;;
72205;SDS011;60111;48.286;7.812;2023-02-28T16:41:02;24.47;;;13.45;;
72205;SDS011;60111;48.286;7.812;2023-02-28T16:43:34;17.15;;;11.68;;
72205;SDS011;60111;48.286;7.812;2023-02-28T16:46:07;19.52;;;13.83;;
72205;SDS011;60111;48.286;7.812;2023-02-28T16:48:43;17.60;;;11.85;;
72205;SDS011;60111;48.286;7.812;2023-02-28T16:53:49;20.85;;;13.25;;
72205;SDS011;60111;48.286;7.812;2023-02-28T16:56:22;16.33;;;10.87;;
72205;SDS011;60111;48.286;7.812;2023-02-28T17:01:30;16.05;;;11.63;;
72205;SDS011;60111;48.286;7.812;2023-02-28T17:04:02;18.40;;;11.22;;
72205;SDS011;60111;48.286;7.812;2023-02-28T17:06:35;17.97;;;12.17;;
72205;SDS011;60111;48.286;7.812;2023-02-28T17:09:09;16.48;;;12.07;;
72205;SDS011;60111;48.286;7.812;2023-02-28T17:11:46;18.07;;;12.20;;
72205;SDS011;60111;48.286;7.812;2023-02-28T17:14:19;17.50;;;11.53;;
72205;SDS011;60111;48.286;7.812;2023-02-28T17:16:51;15.30;;;10.98;;
72205;SDS011;60111;48.286;7.812;2023-02-28T17:19:24;15.53;;;11.20;;
72205;SDS011;60111;48.286;7.812;2023-02-28T17:21:56;13.15;;;10.70;;
72205;SDS011;60111;48.286;7.812;2023-02-28T17:24:29;14.80;;;10.90;;
72205;SDS011;60111;48.286;7.812;2023-02-28T17:27:02;16.23;;;10.82;;
72205;SDS011;60111;48.286;7.812;2023-02-28T17:29:35;15.40;;;11.30;;
72205;SDS011;60111;48.286;7.812;2023-02-28T17:32:08;16.05;;;11.15;;
72205;SDS011;60111;48.286;7.812;2023-02-28T17:34:41;18.65;;;12.63;;
72205;SDS011;60111;48.286;7.812;2023-02-28T17:37:14;19.73;;;11.95;;
72205;SDS011;60111;48.286;7.812;2023-02-28T17:39:47;18.40;;;12.70;;
72205;SDS011;60111;48.286;7.812;2023-02-28T17:42:19;19.65;;;12.93;;
72205;SDS011;60111;48.286;7.812;2023-02-28T17:44:52;18.67;;;12.53;;
72205;SDS011;60111;48.286;7.812;2023-02-28T17:47:24;19.37;;;13.37;;
72205;SDS011;60111;48.286;7.812;2023-02-28T17:49:57;24.23;;;12.60;;
72205;SDS011;60111;48.286;7.812;2023-02-28T17:52:29;20.10;;;12.27;;
72205;SDS011;60111;48.286;7.812;2023-02-28T17:57:35;23.92;;;14.03;;
72205;SDS011;60111;48.286;7.812;2023-02-28T18:00:10;22.15;;;14.40;;
72205;SDS011;60111;48.286;7.812;2023-02-28T18:02:44;26.00;;;16.05;;
72205;SDS011;60111;48.286;7.812;2023-02-28T18:05:16;26.52;;;17.15;;
72205;SDS011;60111;48.286;7.812;2023-02-28T18:07:49;33.92;;;19.82;;
72205;SDS011;60111;48.286;7.812;2023-02-28T18:10:22;31.73;;;18.73;;
72205;SDS011;60111;48.286;7.812;2023-02-28T18:12:55;28.27;;;18.92;;
72205;SDS011;60111;48.286;7.812;2023-02-28T18:15:27;32.35;;;19.73;;